Time;durP1;ratioP1;P1;durP2;ratioP2;P2;SDS_P1;SDS_P2;PMS_P1;PMS_P2;Temp;Humidity;BMP_temperature;BMP_pressure;BME280_temperature;BME280_humidity;BME280_pressure;Samples;Min_cycle;Max_cycle;Signal;HPM_P1;HPM_P2
2022/05/08 00:01:19;;;;;;;11.38;5.20;;;;;;;;;;8281922;28;20590;-83
2022/05/08 00:05:21;;;;;;;9.32;5.30;;;;;;;;;;8297757;28;20092;-83
2022/05/08 00:09:24;;;;;;;10.13;5.28;;;;;;;;;;8296907;28;20050;-83
2022/05/08 00:13:27;;;;;;;10.52;5.80;;;;;;;;;;8293654;28;20050;-83
2022/05/08 00:17:34;;;;;;;9.10;5.30;;;;;;;;;;8297731;28;20536;-82
2022/05/08 00:21:36;;;;;;;13.40;5.88;;;;;;;;;;8297556;28;20052;-84
2022/05/08 00:25:39;;;;;;;9.05;5.90;;;;;;;;;;8296385;28;20073;-83
2022/05/08 00:29:41;;;;;;;9.95;5.55;;;;;;;;;;8296909;28;20050;-83
2022/05/08 00:33:45;;;;;;;13.10;6.05;;;;;;;;;;8297093;28;20111;-84
2022/05/08 00:37:48;;;;;;;12.07;6.03;;;;;;;;;;8297869;28;20050;-83
2022/05/08 00:41:50;;;;;;;10.60;6.13;;;;;;;;;;8295599;28;20046;-82
2022/05/08 00:45:53;;;;;;;12.77;7.25;;;;;;;;;;8296673;28;20493;-84
2022/05/08 00:49:57;;;;;;;11.25;6.35;;;;;;;;;;8297996;28;20539;-83
2022/05/08 00:54:03;;;;;;;12.55;6.68;;;;;;;;;;8294682;28;20057;-85
2022/05/08 00:58:07;;;;;;;11.93;6.47;;;;;;;;;;8296979;28;20046;-84
2022/05/08 01:02:09;;;;;;;10.52;5.63;;;;;;;;;;8295518;28;20092;-82
2022/05/08 01:06:16;;;;;;;13.73;6.72;;;;;;;;;;8295508;28;20047;-83
2022/05/08 01:10:18;;;;;;;11.93;6.35;;;;;;;;;;8295551;28;20046;-83
2022/05/08 01:14:22;;;;;;;11.77;6.63;;;;;;;;;;8289407;28;20046;-84
2022/05/08 01:18:25;;;;;;;11.63;6.47;;;;;;;;;;8275510;28;20152;-82
2022/05/08 01:22:29;;;;;;;12.88;6.50;;;;;;;;;;8276926;28;20046;-84
2022/05/08 01:26:31;;;;;;;12.90;6.72;;;;;;;;;;8291720;28;20129;-85
2022/05/08 01:30:34;;;;;;;13.68;7.22;;;;;;;;;;8296613;28;20041;-84
2022/05/08 01:34:36;;;;;;;13.30;6.80;;;;;;;;;;8294917;28;20042;-85
2022/05/08 01:38:40;;;;;;;12.65;7.32;;;;;;;;;;8298296;28;20046;-84
2022/05/08 01:42:43;;;;;;;16.10;7.32;;;;;;;;;;8303799;28;20378;-83
2022/05/08 01:46:45;;;;;;;12.00;7.25;;;;;;;;;;8302922;28;20054;-84
2022/05/08 01:50:48;;;;;;;13.20;7.60;;;;;;;;;;8302304;28;20050;-83
2022/05/08 01:54:52;;;;;;;18.00;8.23;;;;;;;;;;8302392;28;20049;-82
2022/05/08 01:58:54;;;;;;;12.32;7.90;;;;;;;;;;8302956;28;20049;-82
2022/05/08 02:03:00;;;;;;;15.80;8.30;;;;;;;;;;8293544;28;20069;-83
2022/05/08 02:07:02;;;;;;;13.02;7.22;;;;;;;;;;8276673;28;20070;-82
2022/05/08 02:11:07;;;;;;;16.02;8.55;;;;;;;;;;8294776;28;20153;-83
2022/05/08 02:15:11;;;;;;;17.67;8.18;;;;;;;;;;8301879;28;20133;-83
2022/05/08 02:19:14;;;;;;;13.63;7.30;;;;;;;;;;8289574;28;20053;-86
2022/05/08 02:23:16;;;;;;;15.63;8.77;;;;;;;;;;8280417;28;20096;-84
2022/05/08 02:27:21;;;;;;;13.30;7.85;;;;;;;;;;8279761;28;20046;-83
2022/05/08 02:31:23;;;;;;;12.75;7.50;;;;;;;;;;8281340;28;20067;-84
2022/05/08 02:35:26;;;;;;;13.52;7.47;;;;;;;;;;8283476;28;20054;-83
2022/05/08 02:39:29;;;;;;;14.25;7.40;;;;;;;;;;8280497;28;20062;-83
2022/05/08 02:43:33;;;;;;;14.55;7.95;;;;;;;;;;8284607;28;20046;-83
2022/05/08 02:47:35;;;;;;;14.52;8.32;;;;;;;;;;8280059;28;20497;-82
2022/05/08 02:51:38;;;;;;;15.25;7.82;;;;;;;;;;8279478;28;20057;-83
2022/05/08 03:00:17;;;;;;;21.92;10.68;;;;;;;;;;8196938;28;20305;-85
2022/05/08 03:04:20;;;;;;;17.60;9.65;;;;;;;;;;8231878;28;20995;-84
2022/05/08 03:08:23;;;;;;;17.92;9.38;;;;;;;;;;8280078;28;20045;-84
2022/05/08 03:12:25;;;;;;;16.77;8.27;;;;;;;;;;8280082;28;20045;-84
2022/05/08 03:16:29;;;;;;;14.60;9.32;;;;;;;;;;8279285;28;21677;-83
2022/05/08 03:20:34;;;;;;;16.10;9.57;;;;;;;;;;8281189;28;20054;-84
2022/05/08 03:24:37;;;;;;;11.70;7.65;;;;;;;;;;8279970;28;20050;-84
2022/05/08 03:28:40;;;;;;;16.23;9.85;;;;;;;;;;8277675;28;20437;-84
2022/05/08 03:32:44;;;;;;;17.88;9.45;;;;;;;;;;8278977;28;20096;-84
2022/05/08 03:36:46;;;;;;;14.52;8.77;;;;;;;;;;8283560;28;20164;-83
2022/05/08 03:40:49;;;;;;;11.55;7.57;;;;;;;;;;8278443;28;20120;-84
2022/05/08 03:44:53;;;;;;;16.13;8.13;;;;;;;;;;8279173;28;20046;-85
2022/05/08 03:48:57;;;;;;;14.98;9.70;;;;;;;;;;8281644;28;20065;-84
2022/05/08 03:53:01;;;;;;;12.30;7.55;;;;;;;;;;8279904;28;20050;-83
2022/05/08 03:57:05;;;;;;;10.68;6.60;;;;;;;;;;8272772;28;20041;-86
2022/05/08 04:01:07;;;;;;;13.65;8.98;;;;;;;;;;8275841;28;20053;-84
2022/05/08 04:05:12;;;;;;;14.85;9.85;;;;;;;;;;8276982;28;20104;-87
2022/05/08 04:09:15;;;;;;;15.00;8.32;;;;;;;;;;8262975;28;20073;-84
2022/05/08 04:13:18;;;;;;;12.82;7.57;;;;;;;;;;8277184;28;20037;-84
2022/05/08 04:17:22;;;;;;;13.45;7.50;;;;;;;;;;8257272;28;20073;-84
2022/05/08 04:21:26;;;;;;;14.45;7.32;;;;;;;;;;8280736;28;20046;-84
2022/05/08 04:25:27;;;;;;;24.55;12.88;;;;;;;;;;8279848;28;20042;-86
2022/05/08 04:29:30;;;;;;;17.63;8.80;;;;;;;;;;8277007;28;20046;-85
2022/05/08 04:33:32;;;;;;;20.85;12.85;;;;;;;;;;8276000;28;20042;-86
2022/05/08 04:37:36;;;;;;;12.27;6.68;;;;;;;;;;8282701;28;20041;-85
2022/05/08 04:41:39;;;;;;;9.18;6.25;;;;;;;;;;8276347;28;20081;-84
2022/05/08 04:45:41;;;;;;;10.38;5.75;;;;;;;;;;8282023;28;20053;-87
2022/05/08 04:49:44;;;;;;;9.25;5.70;;;;;;;;;;8279198;28;20406;-84
2022/05/08 04:53:48;;;;;;;12.20;6.07;;;;;;;;;;8276248;28;20049;-86
2022/05/08 04:57:50;;;;;;;9.15;5.65;;;;;;;;;;8276864;28;20505;-84
2022/05/08 05:01:53;;;;;;;11.90;5.93;;;;;;;;;;8276340;28;20054;-86
2022/05/08 05:05:55;;;;;;;10.90;5.95;;;;;;;;;;8276807;28;20045;-87
2022/05/08 05:09:59;;;;;;;9.43;5.65;;;;;;;;;;8276615;28;20452;-86
2022/05/08 05:14:02;;;;;;;8.38;5.30;;;;;;;;;;8281606;28;20052;-85
2022/05/08 05:18:05;;;;;;;7.65;4.60;;;;;;;;;;8276379;28;20145;-84
2022/05/08 05:22:07;;;;;;;8.07;4.65;;;;;;;;;;8277610;28;20054;-85
2022/05/08 05:26:11;;;;;;;8.77;5.90;;;;;;;;;;8278209;28;20056;-85
2022/05/08 05:30:16;;;;;;;8.98;5.50;;;;;;;;;;8277699;28;20049;-85
2022/05/08 05:34:18;;;;;;;8.30;5.00;;;;;;;;;;8293722;28;20048;-84
2022/05/08 05:38:21;;;;;;;7.57;4.70;;;;;;;;;;8283082;28;20045;-84
2022/05/08 05:42:26;;;;;;;10.88;6.50;;;;;;;;;;8294334;28;20136;-84
2022/05/08 05:50:49;;;;;;;26.10;13.98;;;;;;;;;;8298077;28;20054;-84
2022/05/08 05:54:51;;;;;;;18.45;11.00;;;;;;;;;;8296667;28;20141;-83
2022/05/08 05:58:56;;;;;;;14.52;8.68;;;;;;;;;;8294411;28;20453;-85
2022/05/08 06:02:58;;;;;;;14.82;6.85;;;;;;;;;;8297381;28;20099;-84
2022/05/08 06:07:01;;;;;;;10.95;5.50;;;;;;;;;;8293119;28;20046;-83
2022/05/08 06:11:04;;;;;;;9.52;5.20;;;;;;;;;;8295100;28;20046;-84
2022/05/08 06:15:10;;;;;;;7.50;3.80;;;;;;;;;;8292336;28;20050;-84
2022/05/08 06:19:13;;;;;;;6.35;3.75;;;;;;;;;;8290754;28;20062;-84
2022/05/08 06:23:16;;;;;;;6.47;3.67;;;;;;;;;;8292893;28;20053;-84
2022/05/08 06:27:19;;;;;;;4.97;2.97;;;;;;;;;;8300951;28;20065;-87
2022/05/08 06:31:25;;;;;;;5.82;2.92;;;;;;;;;;8301373;28;20054;-84
2022/05/08 06:35:28;;;;;;;8.93;2.90;;;;;;;;;;8295490;28;20069;-84
2022/05/08 06:39:33;;;;;;;5.25;3.03;;;;;;;;;;8301049;28;20073;-84
2022/05/08 06:43:40;;;;;;;4.10;2.55;;;;;;;;;;8300413;28;20138;-86
2022/05/08 06:47:44;;;;;;;4.60;2.80;;;;;;;;;;8298384;28;20080;-84
2022/05/08 06:51:49;;;;;;;4.50;2.22;;;;;;;;;;8296377;28;20406;-87
2022/05/08 06:56:01;;;;;;;4.20;2.38;;;;;;;;;;8288082;28;20652;-85
2022/05/08 07:04:39;;;;;;;4.22;2.47;;;;;;;;;;8292885;28;20049;-82
2022/05/08 07:08:51;;;;;;;4.80;2.35;;;;;;;;;;8266423;28;20129;-84
2022/05/08 07:13:02;;;;;;;3.67;2.20;;;;;;;;;;8297918;28;20042;-81
2022/05/08 07:17:10;;;;;;;5.50;2.60;;;;;;;;;;8284752;28;20037;-82
2022/05/08 07:21:18;;;;;;;11.85;4.43;;;;;;;;;;8299464;28;20541;-89
2022/05/08 07:25:24;;;;;;;9.45;2.70;;;;;;;;;;8284110;28;20125;-89
2022/05/08 07:29:30;;;;;;;5.93;2.63;;;;;;;;;;8267963;28;20479;-90
2022/05/08 07:33:45;;;;;;;7.15;3.17;;;;;;;;;;8267819;28;20105;-89
2022/05/08 07:38:08;;;;;;;9.38;2.63;;;;;;;;;;8269982;28;20050;-91
2022/05/08 07:42:23;;;;;;;5.93;3.05;;;;;;;;;;8267449;28;20574;-84
2022/05/08 07:46:58;;;;;;;9.30;3.03;;;;;;;;;;8269215;28;20053;-84
2022/05/08 07:51:18;;;;;;;13.18;4.15;;;;;;;;;;8269216;28;20500;-84
2022/05/08 07:55:51;;;;;;;9.33;3.00;;;;;;;;;;8278970;28;20070;-90
2022/05/08 08:00:12;;;;;;;8.85;3.40;;;;;;;;;;8284792;28;20852;-83
2022/05/08 08:04:22;;;;;;;6.68;3.05;;;;;;;;;;8268910;28;20402;-85
2022/05/08 08:08:38;;;;;;;4.20;2.50;;;;;;;;;;8292461;28;20117;-83
2022/05/08 08:13:12;;;;;;;5.07;2.40;;;;;;;;;;8283278;28;20081;-82
2022/05/08 08:17:35;;;;;;;6.10;2.90;;;;;;;;;;8297810;28;20251;-82
2022/05/08 08:21:56;;;;;;;5.07;2.60;;;;;;;;;;8294541;28;20042;-83
2022/05/08 08:26:03;;;;;;;6.68;2.78;;;;;;;;;;8294143;28;20409;-82
2022/05/08 08:30:16;;;;;;;6.65;2.70;;;;;;;;;;8290162;28;20104;-85
2022/05/08 08:34:33;;;;;;;6.05;2.55;;;;;;;;;;8288488;28;20057;-84
2022/05/08 08:38:54;;;;;;;5.20;2.83;;;;;;;;;;8297937;28;20068;-88
2022/05/08 08:43:17;;;;;;;6.30;2.78;;;;;;;;;;8268008;28;20050;-83
2022/05/08 08:52:04;;;;;;;4.47;2.53;;;;;;;;;;8294581;28;20050;-85
2022/05/08 08:56:35;;;;;;;5.22;2.10;;;;;;;;;;8287790;28;20140;-83
2022/05/08 09:00:37;;;;;;;6.65;2.30;;;;;;;;;;8297721;28;20383;-82
2022/05/08 09:04:42;;;;;;;8.55;2.53;;;;;;;;;;8269370;28;20052;-82
2022/05/08 09:08:45;;;;;;;7.05;2.33;;;;;;;;;;8283756;28;20064;-83
2022/05/08 09:13:06;;;;;;;6.70;2.65;;;;;;;;;;8293019;28;20068;-84
2022/05/08 09:17:10;;;;;;;5.20;1.88;;;;;;;;;;8281677;28;20141;-83
2022/05/08 09:25:59;;;;;;;4.97;2.78;;;;;;;;;;8291299;28;20544;-82
2022/05/08 09:30:09;;;;;;;11.50;3.50;;;;;;;;;;8278132;28;20049;-86
2022/05/08 09:34:11;;;;;;;10.07;3.67;;;;;;;;;;8293939;28;20049;-83
2022/05/08 09:38:16;;;;;;;9.27;3.42;;;;;;;;;;8289685;28;20477;-82
2022/05/08 09:42:37;;;;;;;6.32;3.20;;;;;;;;;;8281910;28;20038;-82
2022/05/08 09:46:43;;;;;;;8.52;3.40;;;;;;;;;;8291856;28;20046;-81
2022/05/08 09:50:49;;;;;;;7.13;3.10;;;;;;;;;;8282191;28;20045;-81
2022/05/08 09:54:54;;;;;;;7.90;3.08;;;;;;;;;;8290243;28;20045;-80
2022/05/08 09:58:57;;;;;;;5.85;2.72;;;;;;;;;;8290275;28;20049;-81
2022/05/08 10:03:00;;;;;;;6.45;3.47;;;;;;;;;;8296915;28;20567;-81
2022/05/08 10:07:03;;;;;;;8.00;2.65;;;;;;;;;;8296018;28;20041;-81
2022/05/08 10:15:37;;;;;;;5.22;2.70;;;;;;;;;;8295704;28;20053;-81
2022/05/08 10:19:48;;;;;;;;;;;;;;;;;;8300226;28;20096;-82
2022/05/08 10:23:51;;;;;;;6.35;2.53;;;;;;;;;;8316449;28;20017;-81
2022/05/08 10:28:08;;;;;;;4.93;2.70;;;;;;;;;;8302230;28;20731;-80
2022/05/08 10:32:13;;;;;;;6.40;3.25;;;;;;;;;;8303259;28;20049;-80
2022/05/08 10:36:16;;;;;;;8.10;3.45;;;;;;;;;;8302873;28;20069;-80
2022/05/08 10:40:36;;;;;;;5.28;3.20;;;;;;;;;;8302384;28;20046;-80
2022/05/08 10:44:42;;;;;;;5.85;3.30;;;;;;;;;;8300183;28;20042;-80
2022/05/08 10:48:44;;;;;;;7.90;3.80;;;;;;;;;;8302391;28;20042;-80
2022/05/08 10:52:49;;;;;;;7.20;4.25;;;;;;;;;;8302110;28;20544;-81
2022/05/08 10:56:52;;;;;;;8.20;3.38;;;;;;;;;;8302945;28;20054;-80
2022/05/08 11:01:03;;;;;;;8.95;3.80;;;;;;;;;;8302036;28;20137;-80
2022/05/08 11:05:07;;;;;;;6.80;3.70;;;;;;;;;;8328980;28;20049;-80
2022/05/08 11:09:11;;;;;;;10.15;3.78;;;;;;;;;;8328035;28;20301;-81
2022/05/08 11:13:15;;;;;;;5.72;3.17;;;;;;;;;;8300407;28;20050;-80
2022/05/08 11:17:20;;;;;;;6.75;3.28;;;;;;;;;;8300509;28;20516;-80
2022/05/08 11:21:22;;;;;;;6.10;3.35;;;;;;;;;;8301829;28;20050;-80
2022/05/08 11:25:25;;;;;;;7.63;3.13;;;;;;;;;;8301193;28;20053;-80
2022/05/08 11:29:28;;;;;;;6.45;3.05;;;;;;;;;;8300057;28;20556;-80
2022/05/08 11:38:00;;;;;;;5.43;3.40;;;;;;;;;;8300381;28;20049;-82
2022/05/08 11:42:04;;;;;;;5.80;3.13;;;;;;;;;;8300711;28;20064;-80
2022/05/08 11:46:07;;;;;;;8.18;3.75;;;;;;;;;;8292560;28;20073;-80
2022/05/08 11:50:12;;;;;;;5.25;3.10;;;;;;;;;;8300683;28;20046;-80
2022/05/08 11:54:22;;;;;;;7.97;3.53;;;;;;;;;;8297771;28;20034;-80
2022/05/08 11:58:32;;;;;;;6.57;2.95;;;;;;;;;;8281745;28;20054;-80
2022/05/08 12:02:46;;;;;;;6.57;3.17;;;;;;;;;;8292502;28;20073;-81
2022/05/08 12:07:01;;;;;;;6.95;3.55;;;;;;;;;;8283615;28;20052;-81
2022/05/08 12:11:04;;;;;;;6.03;3.10;;;;;;;;;;8282090;28;20497;-80
2022/05/08 12:15:22;;;;;;;5.07;3.30;;;;;;;;;;8293654;28;20073;-81
2022/05/08 12:19:25;;;;;;;9.57;3.67;;;;;;;;;;8296921;28;20425;-80
2022/05/08 12:23:29;;;;;;;9.15;4.03;;;;;;;;;;8290670;28;20049;-81
2022/05/08 12:27:33;;;;;;;6.68;3.35;;;;;;;;;;8290989;28;20108;-81
2022/05/08 12:31:37;;;;;;;10.73;3.72;;;;;;;;;;8288662;28;20038;-81
2022/05/08 12:35:39;;;;;;;8.13;3.30;;;;;;;;;;8291032;28;20108;-81
2022/05/08 12:39:45;;;;;;;9.07;3.83;;;;;;;;;;8269906;28;20061;-81
2022/05/08 12:43:49;;;;;;;6.65;3.35;;;;;;;;;;8278005;28;20037;-87
2022/05/08 12:47:52;;;;;;;9.73;3.78;;;;;;;;;;8288266;28;20501;-81
2022/05/08 12:51:55;;;;;;;5.50;3.63;;;;;;;;;;8262646;28;20053;-84
2022/05/08 12:56:00;;;;;;;24.63;14.63;;;;;;;;;;8246435;28;20050;-84
2022/05/08 13:00:05;;;;;;;10.15;6.82;;;;;;;;;;8258575;28;20917;-81
2022/05/08 13:04:08;;;;;;;6.50;4.10;;;;;;;;;;8250321;28;20042;-82
2022/05/08 13:08:11;;;;;;;7.38;5.22;;;;;;;;;;8260186;28;20054;-85
2022/05/08 13:12:16;;;;;;;9.52;3.72;;;;;;;;;;8258192;28;20061;-89
2022/05/08 13:16:19;;;;;;;7.68;3.97;;;;;;;;;;8258371;28;20050;-85
2022/05/08 13:20:24;;;;;;;5.53;3.50;;;;;;;;;;8256389;28;20062;-86
2022/05/08 13:24:27;;;;;;;6.38;3.90;;;;;;;;;;8249948;28;20046;-84
2022/05/08 13:28:33;;;;;;;4.97;3.55;;;;;;;;;;8246684;28;20050;-84
2022/05/08 13:32:37;;;;;;;9.63;3.88;;;;;;;;;;8255561;28;20124;-80
2022/05/08 13:36:41;;;;;;;6.75;3.72;;;;;;;;;;8268625;28;20046;-82
2022/05/08 13:40:44;;;;;;;5.32;3.55;;;;;;;;;;8277515;28;20060;-83
2022/05/08 13:44:49;;;;;;;6.22;3.72;;;;;;;;;;8302338;28;20050;-81
2022/05/08 13:48:52;;;;;;;9.35;3.85;;;;;;;;;;8294755;28;20057;-81
2022/05/08 13:52:56;;;;;;;7.18;3.83;;;;;;;;;;8301079;28;20045;-82
2022/05/08 13:56:59;;;;;;;6.28;3.70;;;;;;;;;;8302417;28;20042;-81
2022/05/08 14:01:04;;;;;;;5.90;3.72;;;;;;;;;;8297760;28;20065;-80
2022/05/08 14:05:07;;;;;;;8.63;4.10;;;;;;;;;;8302308;28;20050;-81
2022/05/08 14:09:10;;;;;;;7.05;3.90;;;;;;;;;;8303498;28;20052;-80
2022/05/08 14:13:13;;;;;;;6.35;3.70;;;;;;;;;;8297656;28;20508;-80
2022/05/08 14:17:18;;;;;;;7.88;3.83;;;;;;;;;;8298747;28;20585;-84
2022/05/08 14:21:21;;;;;;;6.57;3.50;;;;;;;;;;8296337;28;20092;-80
2022/05/08 14:25:24;;;;;;;5.93;3.42;;;;;;;;;;8297541;28;20056;-81
2022/05/08 14:29:27;;;;;;;5.85;3.50;;;;;;;;;;8294266;28;20046;-82
2022/05/08 14:37:53;;;;;;;9.85;3.90;;;;;;;;;;8290206;28;20046;-85
2022/05/08 14:41:58;;;;;;;5.00;3.20;;;;;;;;;;8302932;28;20046;-82
2022/05/08 14:46:03;;;;;;;6.40;3.10;;;;;;;;;;8298946;28;20069;-84
2022/05/08 14:50:09;;;;;;;6.28;3.28;;;;;;;;;;8293540;28;20540;-84
2022/05/08 14:54:18;;;;;;;6.00;3.10;;;;;;;;;;8288557;28;20042;-82
2022/05/08 14:58:23;;;;;;;5.28;3.10;;;;;;;;;;8293687;28;20483;-83
2022/05/08 15:02:27;;;;;;;8.02;3.28;;;;;;;;;;8298078;28;20421;-82
2022/05/08 15:06:35;;;;;;;6.75;3.20;;;;;;;;;;8288821;28;20137;-84
2022/05/08 15:10:40;;;;;;;3.83;2.78;;;;;;;;;;8287274;28;20449;-83
2022/05/08 15:14:45;;;;;;;4.50;3.00;;;;;;;;;;8296493;28;20494;-81
2022/05/08 15:18:51;;;;;;;4.75;3.10;;;;;;;;;;8287934;28;20415;-80
2022/05/08 15:22:58;;;;;;;7.35;3.45;;;;;;;;;;8296299;28;20528;-81
2022/05/08 15:27:03;;;;;;;6.88;3.60;;;;;;;;;;8292836;28;20119;-85
2022/05/08 15:31:06;;;;;;;6.82;3.53;;;;;;;;;;8292424;28;20452;-82
2022/05/08 15:35:10;;;;;;;6.60;3.90;;;;;;;;;;8296162;28;20046;-82
2022/05/08 15:39:16;;;;;;;9.15;3.72;;;;;;;;;;8296089;28;20477;-82
2022/05/08 15:43:19;;;;;;;7.32;3.22;;;;;;;;;;8282572;28;20038;-90
2022/05/08 15:47:26;;;;;;;4.57;3.10;;;;;;;;;;8274051;28;20387;-81
2022/05/08 15:51:45;;;;;;;6.03;3.28;;;;;;;;;;8267714;28;20046;-81
2022/05/08 15:56:02;;;;;;;5.25;3.50;;;;;;;;;;8267156;28;20050;-81
2022/05/08 16:00:23;;;;;;;6.18;3.20;;;;;;;;;;8267503;28;20046;-84
2022/05/08 16:04:44;;;;;;;6.18;3.20;;;;;;;;;;8268511;28;20050;-81
2022/05/08 16:08:54;;;;;;;5.38;3.33;;;;;;;;;;8266790;28;20038;-82
2022/05/08 16:26:00;;;;;;;8.93;3.72;;;;;;;;;;8266246;28;20104;-81
2022/05/08 16:30:06;;;;;;;7.40;3.90;;;;;;;;;;8277474;28;20054;-81
2022/05/08 16:34:10;;;;;;;8.70;4.38;;;;;;;;;;8287268;28;20474;-81
2022/05/08 16:38:15;;;;;;;9.52;4.28;;;;;;;;;;8285915;28;20176;-81
2022/05/08 16:42:18;;;;;;;8.93;4.85;;;;;;;;;;8271608;28;20070;-81
2022/05/08 16:46:23;;;;;;;7.32;3.40;;;;;;;;;;8273967;28;20391;-81
2022/05/08 16:50:26;;;;;;;5.10;3.15;;;;;;;;;;8277409;28;20050;-82
2022/05/08 16:54:31;;;;;;;6.53;3.00;;;;;;;;;;8286638;28;20046;-81
2022/05/08 16:58:34;;;;;;;7.20;3.47;;;;;;;;;;8284335;28;20105;-81
2022/05/08 17:02:40;;;;;;;5.45;3.33;;;;;;;;;;8281430;28;20067;-87
2022/05/08 17:06:44;;;;;;;5.15;3.13;;;;;;;;;;8286327;28;20046;-81
2022/05/08 17:10:47;;;;;;;6.32;3.33;;;;;;;;;;8282914;28;20042;-82
2022/05/08 17:14:50;;;;;;;4.88;2.60;;;;;;;;;;8286429;28;20046;-82
2022/05/08 17:18:55;;;;;;;4.97;2.67;;;;;;;;;;8273264;28;20058;-81
2022/05/08 17:22:58;;;;;;;6.15;3.00;;;;;;;;;;8293547;28;20045;-83
2022/05/08 17:31:22;;;;;;;6.00;3.42;;;;;;;;;;8266020;28;20060;-82
2022/05/08 17:35:28;;;;;;;4.00;2.95;;;;;;;;;;8267372;28;20046;-87
2022/05/08 17:39:36;;;;;;;4.53;2.70;;;;;;;;;;8284681;28;20046;-81
2022/05/08 17:43:41;;;;;;;3.85;2.42;;;;;;;;;;8277449;28;20510;-82
2022/05/08 17:47:44;;;;;;;5.63;2.70;;;;;;;;;;8284024;28;20058;-81
2022/05/08 17:51:49;;;;;;;5.38;3.08;;;;;;;;;;8278473;28;20483;-84
2022/05/08 17:55:52;;;;;;;9.93;5.78;;;;;;;;;;8279218;28;20491;-82
2022/05/08 17:59:57;;;;;;;13.65;7.85;;;;;;;;;;8280653;28;20046;-83
2022/05/08 18:08:34;;;;;;;14.95;7.95;;;;;;;;;;8282472;28;20478;-83
2022/05/08 18:12:38;;;;;;;15.23;7.38;;;;;;;;;;8278364;28;20076;-83
2022/05/08 18:16:41;;;;;;;19.30;9.15;;;;;;;;;;8286023;28;20050;-85
2022/05/08 18:20:45;;;;;;;12.63;7.32;;;;;;;;;;8285682;28;20054;-83
2022/05/08 18:24:50;;;;;;;11.52;7.22;;;;;;;;;;8287823;28;20053;-83
2022/05/08 18:29:03;;;;;;;14.30;6.63;;;;;;;;;;8283617;28;20047;-84
2022/05/08 18:33:15;;;;;;;9.98;7.43;;;;;;;;;;8270285;28;20092;-83
2022/05/08 18:37:22;;;;;;;12.15;7.45;;;;;;;;;;8284868;28;20046;-84
2022/05/08 18:41:27;;;;;;;10.10;6.15;;;;;;;;;;8284719;28;20120;-84
2022/05/08 18:45:40;;;;;;;15.48;8.45;;;;;;;;;;8286589;28;20050;-85
2022/05/08 18:49:55;;;;;;;13.45;6.70;;;;;;;;;;8290663;28;20485;-83
2022/05/08 18:54:01;;;;;;;16.02;8.02;;;;;;;;;;8279929;28;20125;-84
2022/05/08 18:58:10;;;;;;;11.40;6.90;;;;;;;;;;8271890;28;20042;-83
2022/05/08 19:02:14;;;;;;;11.40;7.53;;;;;;;;;;8286399;28;20049;-83
2022/05/08 19:06:19;;;;;;;8.95;6.10;;;;;;;;;;8276398;28;20049;-82
2022/05/08 19:10:22;;;;;;;9.60;5.72;;;;;;;;;;8283662;28;20141;-83
2022/05/08 19:14:28;;;;;;;19.80;10.32;;;;;;;;;;8271110;28;20057;-82
2022/05/08 19:18:34;;;;;;;19.23;9.35;;;;;;;;;;8282155;28;20047;-83
2022/05/08 19:22:42;;;;;;;17.35;8.48;;;;;;;;;;8275890;28;20045;-83
2022/05/08 19:26:47;;;;;;;10.48;6.43;;;;;;;;;;8251438;28;20074;-84
2022/05/08 19:39:58;;;;;;;9.50;6.75;;;;;;;;;;8286476;28;20133;-83
2022/05/08 19:44:03;;;;;;;15.93;8.43;;;;;;;;;;8282853;28;20074;-83
2022/05/08 19:48:10;;;;;;;8.82;6.40;;;;;;;;;;8283247;28;20482;-83
2022/05/08 19:52:15;;;;;;;9.32;6.47;;;;;;;;;;8285047;28;20041;-83
2022/05/08 19:56:18;;;;;;;10.25;6.00;;;;;;;;;;8271697;28;20054;-83
2022/05/08 20:00:22;;;;;;;9.55;6.40;;;;;;;;;;8268299;28;20145;-82
2022/05/08 20:04:26;;;;;;;8.90;6.15;;;;;;;;;;8267746;28;20112;-82
2022/05/08 20:08:29;;;;;;;8.23;6.30;;;;;;;;;;8267660;28;20042;-82
2022/05/08 20:12:32;;;;;;;8.73;5.15;;;;;;;;;;8267692;28;20043;-83
2022/05/08 20:16:35;;;;;;;8.75;5.25;;;;;;;;;;8267652;28;20495;-82
2022/05/08 20:25:00;;;;;;;9.37;6.50;;;;;;;;;;8267386;28;20050;-83
2022/05/08 20:29:03;;;;;;;8.25;6.05;;;;;;;;;;8267250;28;20112;-82
2022/05/08 20:33:07;;;;;;;9.98;5.60;;;;;;;;;;8267428;28;20409;-82
2022/05/08 20:37:12;;;;;;;8.48;5.82;;;;;;;;;;8267046;28;20100;-82
2022/05/08 20:41:16;;;;;;;8.40;6.18;;;;;;;;;;8266908;28;20486;-81
2022/05/08 20:45:20;;;;;;;8.70;6.25;;;;;;;;;;8266136;28;20050;-83
2022/05/08 20:49:22;;;;;;;7.72;5.63;;;;;;;;;;8266761;28;20050;-82
2022/05/08 20:53:27;;;;;;;7.90;5.22;;;;;;;;;;8267045;28;20053;-82
2022/05/08 20:57:30;;;;;;;8.45;5.57;;;;;;;;;;8266883;28;20528;-82
2022/05/08 21:01:33;;;;;;;9.50;6.28;;;;;;;;;;8266113;28;20060;-82
2022/05/08 21:09:57;;;;;;;7.60;6.03;;;;;;;;;;8265943;28;20050;-83
2022/05/08 21:14:00;;;;;;;10.95;7.18;;;;;;;;;;8266408;28;20042;-82
2022/05/08 21:18:04;;;;;;;10.88;6.80;;;;;;;;;;8266015;28;20498;-82
2022/05/08 21:22:06;;;;;;;10.23;6.45;;;;;;;;;;8266196;28;20453;-82
2022/05/08 21:26:11;;;;;;;8.95;6.28;;;;;;;;;;8265785;28;20042;-82
2022/05/08 21:30:14;;;;;;;10.05;5.85;;;;;;;;;;8266113;28;20057;-82
2022/05/08 21:34:18;;;;;;;9.52;6.10;;;;;;;;;;8265521;28;20103;-81
2022/05/08 21:38:20;;;;;;;8.60;5.97;;;;;;;;;;8265480;28;20050;-82
2022/05/08 21:42:24;;;;;;;9.48;6.43;;;;;;;;;;8265827;28;20046;-82
2022/05/08 21:46:27;;;;;;;11.13;7.28;;;;;;;;;;8265838;28;20084;-82
2022/05/08 21:50:30;;;;;;;22.30;11.20;;;;;;;;;;8265736;28;20050;-83
2022/05/08 21:54:32;;;;;;;14.18;8.23;;;;;;;;;;8267643;28;20046;-82
2022/05/08 21:58:36;;;;;;;19.88;11.27;;;;;;;;;;8272148;28;20057;-82
2022/05/08 22:02:39;;;;;;;18.02;10.02;;;;;;;;;;8271843;28;20055;-82
2022/05/08 22:06:41;;;;;;;15.73;9.48;;;;;;;;;;8271499;28;20070;-82
2022/05/08 22:10:44;;;;;;;14.13;8.70;;;;;;;;;;8271839;28;20081;-84
2022/05/08 22:14:48;;;;;;;11.70;7.72;;;;;;;;;;8271250;28;20046;-81
2022/05/08 22:23:11;;;;;;;8.18;5.90;;;;;;;;;;8271636;28;20057;-82
2022/05/08 22:27:13;;;;;;;9.90;6.40;;;;;;;;;;8270940;28;20509;-81
2022/05/08 22:31:17;;;;;;;11.07;6.65;;;;;;;;;;8271194;28;20046;-82
2022/05/08 22:35:20;;;;;;;8.15;5.97;;;;;;;;;;8270892;28;20410;-82
2022/05/08 22:39:22;;;;;;;7.93;5.90;;;;;;;;;;8270714;28;20054;-82
2022/05/08 22:43:25;;;;;;;9.35;6.10;;;;;;;;;;8270740;28;20054;-82
2022/05/08 22:47:29;;;;;;;10.65;6.53;;;;;;;;;;8270414;28;20043;-81
2022/05/08 22:51:33;;;;;;;10.73;6.00;;;;;;;;;;8270940;28;20054;-81
2022/05/08 22:55:36;;;;;;;7.20;5.03;;;;;;;;;;8270371;28;20057;-82
2022/05/08 22:59:38;;;;;;;6.43;4.43;;;;;;;;;;8270094;28;20058;-81
2022/05/08 23:03:42;;;;;;;7.28;5.25;;;;;;;;;;8269940;28;20058;-81
2022/05/08 23:07:45;;;;;;;10.07;5.40;;;;;;;;;;8292929;28;20048;-82
2022/05/08 23:11:48;;;;;;;8.38;5.93;;;;;;;;;;8335443;28;20516;-81
2022/05/08 23:15:52;;;;;;;11.05;6.78;;;;;;;;;;8335098;28;20045;-82
2022/05/08 23:19:55;;;;;;;10.73;5.90;;;;;;;;;;8304390;28;20058;-82
2022/05/08 23:23:58;;;;;;;10.82;6.40;;;;;;;;;;8302111;28;20127;-81
2022/05/08 23:28:01;;;;;;;9.23;5.55;;;;;;;;;;8299787;28;20057;-81
2022/05/08 23:32:06;;;;;;;7.47;5.65;;;;;;;;;;8282940;28;20041;-82
2022/05/08 23:36:11;;;;;;;7.55;4.93;;;;;;;;;;8289484;28;20050;-82
2022/05/08 23:40:15;;;;;;;7.63;4.82;;;;;;;;;;8293355;28;20041;-82
2022/05/08 23:44:18;;;;;;;8.07;5.40;;;;;;;;;;8291767;28;20394;-82
2022/05/08 23:48:22;;;;;;;7.30;4.95;;;;;;;;;;8291233;28;20117;-82
2022/05/08 23:52:25;;;;;;;7.35;5.45;;;;;;;;;;8298364;28;20046;-83
2022/05/08 23:56:27;;;;;;;8.77;5.82;;;;;;;;;;8299208;28;20049;-82
